createdAt,value
2022-11-28T00:00:33.607Z,75.49
2022-11-28T00:01:36.755Z,75.29
2022-11-28T00:02:38.378Z,75.43
2022-11-28T00:03:40.295Z,75.56
2022-11-28T00:04:42.320Z,75.35
2022-11-28T00:05:47.041Z,75.71
2022-11-28T00:06:52.052Z,75.79
2022-11-28T00:07:53.721Z,75.29
2022-11-28T00:08:55.816Z,75.43
2022-11-28T00:09:57.252Z,74.98
2022-11-28T00:10:58.758Z,75.28
2022-11-28T00:12:00.223Z,74.90
2022-11-28T00:13:01.636Z,75.35
2022-11-28T00:14:03.489Z,74.96
2022-11-28T00:15:05.850Z,75.31
2022-11-28T00:16:09.513Z,74.33
2022-11-28T00:17:10.955Z,74.65
2022-11-28T00:18:12.365Z,75.01
2022-11-28T00:19:14.737Z,74.97
2022-11-28T00:20:16.202Z,74.80
2022-11-28T00:21:19.176Z,74.83
2022-11-28T00:22:20.534Z,74.96
2022-11-28T00:23:21.967Z,74.99
2022-11-28T00:24:23.809Z,75.25
2022-11-28T00:25:25.275Z,75.60
2022-11-28T00:26:29.758Z,75.26
2022-11-28T00:27:31.213Z,75.03
2022-11-28T00:28:32.721Z,75.53
2022-11-28T00:29:34.555Z,75.44
2022-11-28T00:30:37.483Z,75.40
2022-11-28T00:31:42.671Z,75.31
2022-11-28T00:32:44.650Z,75.37
2022-11-28T00:33:46.743Z,75.44
2022-11-28T00:34:48.272Z,75.19
2022-11-28T00:35:49.787Z,75.60
2022-11-28T00:36:51.235Z,75.36
2022-11-28T00:37:52.636Z,75.32
2022-11-28T00:38:54.797Z,75.53
2022-11-28T00:39:56.232Z,74.81
2022-11-28T00:41:07.216Z,75.66
2022-11-28T00:42:08.637Z,75.25
2022-11-28T00:43:11.651Z,75.31
2022-11-28T00:44:13.114Z,75.41
2022-11-28T00:45:14.574Z,74.84
2022-11-28T00:46:21.078Z,75.44
2022-11-28T00:47:22.559Z,75.56
2022-11-28T00:48:25.060Z,75.69
2022-11-28T00:49:26.900Z,75.75
2022-11-28T00:50:28.346Z,75.44
2022-11-28T00:51:32.691Z,75.08
2022-11-28T00:52:34.132Z,75.45
2022-11-28T00:53:36.421Z,75.64
2022-11-28T00:54:38.412Z,75.49
2022-11-28T00:55:40.650Z,76.06
2022-11-28T00:56:42.143Z,75.92
2022-11-28T00:57:43.588Z,75.47
2022-11-28T00:58:45.683Z,75.61
2022-11-28T00:59:47.130Z,75.61
2022-11-28T01:00:48.683Z,75.54
2022-11-28T01:01:50.199Z,76.19
2022-11-28T01:02:52.171Z,76.05
2022-11-28T01:03:55.571Z,76.25
2022-11-28T01:04:57.008Z,75.97
2022-11-28T01:05:58.450Z,75.74
2022-11-28T01:06:59.953Z,76.27
2022-11-28T01:08:01.413Z,75.82
2022-11-28T01:09:06.372Z,76.03
2022-11-28T01:10:10.334Z,76.01
2022-11-28T01:11:13.117Z,76.23
2022-11-28T01:12:14.568Z,76.12
2022-11-28T01:13:16.053Z,76.18
2022-11-28T01:14:23.266Z,75.96
2022-11-28T01:15:24.832Z,76.11
2022-11-28T01:16:27.032Z,75.20
2022-11-28T01:17:28.604Z,76.01
2022-11-28T01:18:30.413Z,75.99
2022-11-28T01:19:32.209Z,75.98
2022-11-28T01:20:33.723Z,76.17
2022-11-28T01:21:35.699Z,75.40
2022-11-28T01:22:37.135Z,75.68
2022-11-28T01:23:39.322Z,75.72
2022-11-28T01:24:40.999Z,76.26
2022-11-28T01:25:42.858Z,76.20
2022-11-28T01:26:44.399Z,76.29
2022-11-28T01:27:45.813Z,76.02
2022-11-28T01:28:48.453Z,76.05
2022-11-28T01:29:49.928Z,75.69
2022-11-28T01:30:51.478Z,75.92
2022-11-28T01:31:52.983Z,75.87
2022-11-28T01:32:54.579Z,76.23
2022-11-28T01:33:57.026Z,75.79
2022-11-28T01:34:58.489Z,76.17
2022-11-28T01:36:00.224Z,76.44
2022-11-28T01:37:01.695Z,76.02
2022-11-28T01:38:03.190Z,76.41
2022-11-28T01:39:05.129Z,76.77
2022-11-28T01:40:07.375Z,76.48
2022-11-28T01:41:09.665Z,76.61
2022-11-28T01:42:18.490Z,76.73
2022-11-28T01:43:20.774Z,76.20
2022-11-28T01:44:22.480Z,76.75
2022-11-28T01:45:33.791Z,76.59
2022-11-28T01:46:36.307Z,76.71
2022-11-28T01:47:38.022Z,76.77
2022-11-28T01:48:42.474Z,76.89
2022-11-28T01:49:46.921Z,77.02
2022-11-28T01:50:52.332Z,77.22
2022-11-28T01:52:01.221Z,77.47
2022-11-28T01:53:06.460Z,76.56
2022-11-28T01:54:08.392Z,76.91
2022-11-28T01:55:12.621Z,77.06
2022-11-28T01:56:20.939Z,77.08
2022-11-28T01:57:25.285Z,76.75
2022-11-28T01:58:28.004Z,77.40
2022-11-28T01:59:35.364Z,76.80
2022-11-28T02:00:37.125Z,77.02
2022-11-28T02:01:39.427Z,77.11
2022-11-28T02:02:54.502Z,76.55
2022-11-28T02:03:58.883Z,77.33
2022-11-28T02:05:00.772Z,77.34
2022-11-28T02:06:02.850Z,77.55
2022-11-28T02:07:04.321Z,77.45
2022-11-28T02:08:06.506Z,77.23
2022-11-28T02:09:16.382Z,77.39
2022-11-28T02:10:23.186Z,77.14
2022-11-28T02:11:46.260Z,77.21
2022-11-28T02:13:39.040Z,77.82
2022-11-28T02:15:06.885Z,78.27
2022-11-28T02:16:31.193Z,78.00
2022-11-28T02:18:02.277Z,78.37
2022-11-28T02:19:22.489Z,78.03
2022-11-28T02:20:59.532Z,78.72
2022-11-28T02:22:42.793Z,78.10
2022-11-28T02:24:02.903Z,77.58
2022-11-28T02:25:26.733Z,77.44
2022-11-28T02:27:15.529Z,77.76
2022-11-28T02:28:29.724Z,78.32
2022-11-28T02:29:58.641Z,78.11
2022-11-28T02:31:12.329Z,77.69
2022-11-28T02:32:36.410Z,78.08
2022-11-28T02:33:49.175Z,78.15
2022-11-28T02:35:16.494Z,78.67
2022-11-28T02:36:31.950Z,78.06
2022-11-28T02:37:58.100Z,77.74
2022-11-28T02:39:31.527Z,78.05
2022-11-28T02:40:57.608Z,79.31
2022-11-28T02:42:38.362Z,79.15
2022-11-28T02:43:59.253Z,79.53
2022-11-28T02:45:32.515Z,79.68
2022-11-28T02:46:43.092Z,79.42
2022-11-28T02:47:51.114Z,79.34
2022-11-28T02:48:58.804Z,78.95
2022-11-28T02:50:06.196Z,78.67
2022-11-28T02:51:15.307Z,78.92
2022-11-28T02:52:25.220Z,79.22
2022-11-28T02:53:31.641Z,79.22
2022-11-28T02:54:33.378Z,79.88
2022-11-28T02:55:40.245Z,79.57
2022-11-28T02:56:49.310Z,79.84
2022-11-28T02:57:53.455Z,79.62
2022-11-28T02:58:54.973Z,79.83
2022-11-28T02:59:56.722Z,80.01
2022-11-28T03:00:58.428Z,79.79
2022-11-28T03:02:01.492Z,79.49
2022-11-28T03:03:17.992Z,79.76
2022-11-28T03:04:51.444Z,80.18
2022-11-28T03:06:49.750Z,79.93
2022-11-28T03:08:11.738Z,78.85
2022-11-28T03:09:31.996Z,79.17
2022-11-28T03:11:18.806Z,79.29
2022-11-28T03:12:24.913Z,79.12
2022-11-28T03:13:41.653Z,79.08
2022-11-28T03:14:57.635Z,79.08
2022-11-28T03:16:27.856Z,78.49
2022-11-28T03:17:37.798Z,78.88
2022-11-28T03:18:54.907Z,79.31
2022-11-28T03:20:23.135Z,79.35
2022-11-28T03:21:44.793Z,79.38
2022-11-28T03:23:06.911Z,79.21
2022-11-28T03:24:15.296Z,78.75
2022-11-28T03:25:29.131Z,78.47
2022-11-28T03:26:40.211Z,78.86
2022-11-28T03:27:52.014Z,78.63
2022-11-28T03:29:03.580Z,78.34
2022-11-28T03:30:54.739Z,78.10
2022-11-28T03:32:00.680Z,78.15
2022-11-28T03:33:03.938Z,78.09
2022-11-28T03:34:09.438Z,78.12
2022-11-28T03:35:17.052Z,78.14
2022-11-28T03:36:23.403Z,77.59
2022-11-28T03:37:32.029Z,77.76
2022-11-28T03:38:44.622Z,77.30
2022-11-28T03:39:51.497Z,77.71
2022-11-28T03:40:56.471Z,77.89
2022-11-28T03:42:05.132Z,77.76
2022-11-28T03:43:12.503Z,77.30
2022-11-28T03:44:20.461Z,77.24
2022-11-28T03:45:25.483Z,77.18
2022-11-28T03:46:35.393Z,77.35
2022-11-28T03:47:43.486Z,76.79
2022-11-28T03:48:52.544Z,77.02
2022-11-28T03:49:57.734Z,76.14
2022-11-28T03:51:11.043Z,76.05
2022-11-28T03:52:18.285Z,76.33
2022-11-28T03:53:26.073Z,76.17
2022-11-28T03:54:40.500Z,76.12
2022-11-28T03:55:50.169Z,75.77
2022-11-28T03:57:09.285Z,76.07
2022-11-28T03:58:21.888Z,76.26
2022-11-28T03:59:33.098Z,76.31
2022-11-28T04:00:38.617Z,76.25
2022-11-28T04:01:43.007Z,76.11
2022-11-28T04:03:29.157Z,75.79
2022-11-28T04:04:36.120Z,75.99
2022-11-28T04:05:48.310Z,75.67
2022-11-28T04:07:18.748Z,75.77
2022-11-28T04:08:31.929Z,75.84
2022-11-28T04:09:47.740Z,75.69
2022-11-28T04:11:03.486Z,75.75
2022-11-28T04:12:11.234Z,75.67
2022-11-28T04:13:21.495Z,75.49
2022-11-28T04:14:37.580Z,75.78
2022-11-28T04:16:12.394Z,75.26
2022-11-28T04:17:25.415Z,74.93
2022-11-28T04:18:35.501Z,74.74
2022-11-28T04:19:54.624Z,75.22
2022-11-28T04:21:11.205Z,75.25
2022-11-28T04:22:21.370Z,75.39
2022-11-28T04:23:26.071Z,75.59
2022-11-28T04:24:34.780Z,75.90
2022-11-28T04:25:39.913Z,76.01
2022-11-28T04:26:46.895Z,75.78
2022-11-28T04:27:54.505Z,76.10
2022-11-28T04:28:59.389Z,76.09
2022-11-28T04:30:03.105Z,76.16
2022-11-28T04:31:07.463Z,76.88
2022-11-28T04:32:11.522Z,76.39
2022-11-28T04:33:18.346Z,76.11
2022-11-28T04:34:21.118Z,75.85
2022-11-28T04:35:40.252Z,76.05
2022-11-28T04:36:45.025Z,76.08
2022-11-28T04:37:48.777Z,75.52
2022-11-28T04:38:56.827Z,75.72
2022-11-28T04:40:00.892Z,75.60
2022-11-28T04:41:12.539Z,75.66
2022-11-28T04:42:18.526Z,75.74
2022-11-28T04:43:26.380Z,75.66
2022-11-28T04:44:36.608Z,75.64
2022-11-28T04:45:45.125Z,75.58
2022-11-28T04:46:52.883Z,75.39
2022-11-28T04:47:55.113Z,75.65
2022-11-28T04:48:56.725Z,75.59
2022-11-28T04:49:58.676Z,75.12
2022-11-28T04:51:06.522Z,75.14
2022-11-28T04:52:43.918Z,75.13
2022-11-28T04:54:02.083Z,75.52
2022-11-28T04:55:26.646Z,75.70
2022-11-28T04:56:37.352Z,76.17
2022-11-28T04:57:47.014Z,76.32
2022-11-28T04:58:50.764Z,75.99
2022-11-28T04:59:54.062Z,76.13
2022-11-28T05:00:57.275Z,76.44
2022-11-28T05:02:04.083Z,76.47
2022-11-28T05:03:06.752Z,76.36
2022-11-28T05:04:08.783Z,75.83
2022-11-28T05:05:13.968Z,75.87
2022-11-28T05:06:27.624Z,76.60
2022-11-28T05:07:29.148Z,75.93
2022-11-28T05:08:30.736Z,76.08
2022-11-28T05:09:33.065Z,75.96
2022-11-28T05:10:35.046Z,75.75
2022-11-28T05:11:36.493Z,75.59
2022-11-28T05:12:38.295Z,76.67
2022-11-28T05:13:40.214Z,76.57
2022-11-28T05:14:41.916Z,76.12
2022-11-28T05:15:44.093Z,75.94
2022-11-28T05:16:45.638Z,75.90
2022-11-28T05:17:47.175Z,75.53
2022-11-28T05:18:48.990Z,75.89
2022-11-28T05:19:50.545Z,75.57
2022-11-28T05:20:52.469Z,75.59
2022-11-28T05:21:53.927Z,75.57
2022-11-28T05:22:55.401Z,75.62
2022-11-28T05:23:56.891Z,76.32
2022-11-28T05:24:58.426Z,76.34
2022-11-28T05:25:59.845Z,76.03
2022-11-28T05:27:01.263Z,76.66
2022-11-28T05:28:02.707Z,76.64
2022-11-28T05:29:05.602Z,77.15
2022-11-28T05:30:07.725Z,77.31
2022-11-28T05:31:09.247Z,77.25
2022-11-28T05:32:11.190Z,76.95
2022-11-28T05:33:12.619Z,77.05
2022-11-28T05:34:14.243Z,77.69
2022-11-28T05:35:15.832Z,77.58
2022-11-28T05:36:18.582Z,77.83
2022-11-28T05:37:20.016Z,77.94
2022-11-28T05:38:21.442Z,78.30
2022-11-28T05:39:23.003Z,78.27
2022-11-28T05:40:25.073Z,78.44
2022-11-28T05:41:29.066Z,78.13
2022-11-28T05:42:34.561Z,77.88
2022-11-28T05:43:36.755Z,77.79
2022-11-28T05:44:39.222Z,77.88
2022-11-28T05:45:42.334Z,77.78
2022-11-28T05:46:43.810Z,77.49
2022-11-28T05:47:45.280Z,78.40
2022-11-28T05:48:46.739Z,77.69
2022-11-28T05:49:48.743Z,77.86
2022-11-28T05:50:50.880Z,77.39
2022-11-28T05:51:52.374Z,78.03
2022-11-28T05:52:53.813Z,78.13
2022-11-28T05:53:55.612Z,78.32
2022-11-28T05:54:57.622Z,78.35
2022-11-28T05:56:00.106Z,78.17
2022-11-28T05:57:02.829Z,77.92
2022-11-28T05:58:04.379Z,77.50
2022-11-28T05:59:05.855Z,77.10
2022-11-28T06:00:07.950Z,77.65
2022-11-28T06:01:18.466Z,77.73
2022-11-28T06:02:20.527Z,77.43
2022-11-28T06:03:22.054Z,78.05
2022-11-28T06:04:23.601Z,77.24
2022-11-28T06:05:41.558Z,76.92
2022-11-28T06:06:43.994Z,77.18
2022-11-28T06:07:46.359Z,77.05
2022-11-28T06:08:49.382Z,77.25
2022-11-28T06:09:51.315Z,77.60
2022-11-28T06:10:59.980Z,77.21
2022-11-28T06:12:01.555Z,76.96
2022-11-28T06:13:03.145Z,76.95
2022-11-28T06:14:04.826Z,76.77
2022-11-28T06:15:07.148Z,76.72
2022-11-28T06:16:12.545Z,77.31
2022-11-28T06:17:17.198Z,76.88
2022-11-28T06:18:18.666Z,76.42
2022-11-28T06:19:20.108Z,76.60
2022-11-28T06:20:21.682Z,76.39
2022-11-28T06:21:23.734Z,76.31
2022-11-28T06:22:25.363Z,75.81
2022-11-28T06:23:27.340Z,76.79
2022-11-28T06:24:28.887Z,76.78
2022-11-28T06:25:30.389Z,75.97
2022-11-28T06:26:31.807Z,76.02
2022-11-28T06:27:35.221Z,76.09
2022-11-28T06:28:37.508Z,75.83
2022-11-28T06:29:38.953Z,76.29
2022-11-28T06:30:43.224Z,75.67
2022-11-28T06:31:44.732Z,75.71
2022-11-28T06:32:46.381Z,75.46
2022-11-28T06:33:48.887Z,75.53
2022-11-28T06:34:50.398Z,75.17
2022-11-28T06:35:52.026Z,75.06
2022-11-28T06:36:53.969Z,75.48
2022-11-28T06:37:55.403Z,74.63
2022-11-28T06:38:57.516Z,74.91
2022-11-28T06:39:59.757Z,74.42
2022-11-28T06:41:05.483Z,74.17
2022-11-28T06:42:07.476Z,74.65
2022-11-28T06:43:08.919Z,74.86
2022-11-28T06:44:14.003Z,74.66
2022-11-28T06:45:15.544Z,74.70
2022-11-28T06:46:21.659Z,75.07
2022-11-28T06:47:23.762Z,75.30
2022-11-28T06:48:25.643Z,75.15
2022-11-28T06:49:27.848Z,74.42
2022-11-28T06:50:29.273Z,74.23
2022-11-28T06:51:30.847Z,73.99
2022-11-28T06:52:32.252Z,74.33
2022-11-28T06:53:34.393Z,74.26
2022-11-28T06:54:35.782Z,75.08
2022-11-28T06:55:37.351Z,75.23
2022-11-28T06:56:41.740Z,74.57
2022-11-28T06:57:43.881Z,74.39
2022-11-28T06:58:46.054Z,74.21
2022-11-28T06:59:48.599Z,74.87
2022-11-28T07:00:50.126Z,74.93
2022-11-28T07:01:52.102Z,74.72
2022-11-28T07:02:56.514Z,74.75
2022-11-28T07:03:58.107Z,74.61
2022-11-28T07:04:59.603Z,74.69
2022-11-28T07:06:02.438Z,74.77
2022-11-28T07:07:03.906Z,74.25
2022-11-28T07:08:08.790Z,74.34
2022-11-28T07:09:10.314Z,74.53
2022-11-28T07:10:12.826Z,75.01
2022-11-28T07:11:20.432Z,75.01
2022-11-28T07:12:21.872Z,75.00
2022-11-28T07:13:24.664Z,74.80
2022-11-28T07:14:26.739Z,74.81
2022-11-28T07:15:28.331Z,73.92
2022-11-28T07:16:32.108Z,74.20
2022-11-28T07:17:34.587Z,74.15
2022-11-28T07:18:36.871Z,74.28
2022-11-28T07:19:39.086Z,74.34
2022-11-28T07:20:40.615Z,74.30
2022-11-28T07:21:42.967Z,74.84
2022-11-28T07:22:46.870Z,75.20
2022-11-28T07:23:48.862Z,75.17
2022-11-28T07:24:50.705Z,75.30
2022-11-28T07:25:58.876Z,75.23
2022-11-28T07:27:00.346Z,75.49
2022-11-28T07:28:01.943Z,75.38
2022-11-28T07:29:06.268Z,75.56
2022-11-28T07:30:08.874Z,75.59
2022-11-28T07:31:16.452Z,75.37
2022-11-28T07:32:18.659Z,75.31
2022-11-28T07:33:20.228Z,75.59
2022-11-28T07:34:21.753Z,75.73
2022-11-28T07:35:23.304Z,75.90
2022-11-28T07:36:27.543Z,74.85
2022-11-28T07:37:28.988Z,74.92
2022-11-28T07:38:31.929Z,75.05
2022-11-28T07:39:33.423Z,75.36
2022-11-28T07:40:34.954Z,75.31
2022-11-28T07:41:37.271Z,75.00
2022-11-28T07:42:38.916Z,75.00
2022-11-28T07:43:42.927Z,74.94
2022-11-28T07:44:45.506Z,74.88
2022-11-28T07:46:00.428Z,74.84
2022-11-28T07:47:02.776Z,74.60
2022-11-28T07:48:04.713Z,74.65
2022-11-28T07:49:06.132Z,75.23
2022-11-28T07:50:08.318Z,74.44
2022-11-28T07:51:12.797Z,74.41
2022-11-28T07:52:14.767Z,74.63
2022-11-28T07:53:16.353Z,73.50
2022-11-28T07:54:17.914Z,74.08
2022-11-28T07:55:19.401Z,74.01
2022-11-28T07:56:23.685Z,74.22
2022-11-28T07:57:25.210Z,74.05
2022-11-28T07:58:26.901Z,74.64
2022-11-28T07:59:28.384Z,73.62
2022-11-28T08:00:29.965Z,74.21
2022-11-28T08:01:36.544Z,73.67
2022-11-28T08:02:39.912Z,73.67
2022-11-28T08:03:42.481Z,73.44
2022-11-28T08:04:48.573Z,73.59
2022-11-28T08:05:52.985Z,73.68
2022-11-28T08:06:54.482Z,73.62
2022-11-28T08:07:56.001Z,73.35
2022-11-28T08:09:00.586Z,73.62
2022-11-28T08:10:17.078Z,74.95
2022-11-28T08:11:20.337Z,75.03
2022-11-28T08:12:21.792Z,75.21
2022-11-28T08:13:23.670Z,75.04
2022-11-28T08:14:25.599Z,74.71
2022-11-28T08:15:31.116Z,74.94
2022-11-28T08:16:33.122Z,74.34
2022-11-28T08:17:35.466Z,73.95
2022-11-28T08:18:38.228Z,73.61
2022-11-28T08:19:39.793Z,73.80
2022-11-28T08:20:41.242Z,74.57
2022-11-28T08:21:42.963Z,75.15
2022-11-28T08:22:44.471Z,74.79
2022-11-28T08:23:46.255Z,75.86
2022-11-28T08:24:47.751Z,75.26
2022-11-28T08:25:49.187Z,75.28
2022-11-28T08:26:50.621Z,74.44
2022-11-28T08:27:52.374Z,74.30
2022-11-28T08:28:54.294Z,73.90
2022-11-28T08:29:55.699Z,73.84
2022-11-28T08:30:57.539Z,73.89
2022-11-28T08:31:59.065Z,73.47
2022-11-28T08:33:00.871Z,73.38
2022-11-28T08:34:05.994Z,73.79
2022-11-28T08:35:07.777Z,73.67
2022-11-28T08:36:11.631Z,73.59
2022-11-28T08:37:13.063Z,73.37
2022-11-28T08:38:14.522Z,73.13
2022-11-28T08:39:23.912Z,73.70
2022-11-28T08:40:26.442Z,73.16
2022-11-28T08:41:27.926Z,72.51
2022-11-28T08:42:30.305Z,72.97
2022-11-28T08:43:34.397Z,73.18
2022-11-28T08:44:36.716Z,73.52
2022-11-28T08:45:38.485Z,73.80
2022-11-28T08:46:39.952Z,74.13
2022-11-28T08:47:41.703Z,74.60
2022-11-28T08:48:43.495Z,73.83
2022-11-28T08:49:45.187Z,73.98
2022-11-28T08:50:50.273Z,73.98
2022-11-28T08:51:51.929Z,74.00
2022-11-28T08:52:53.704Z,73.74
2022-11-28T08:53:59.299Z,73.61
2022-11-28T08:55:01.041Z,74.39
2022-11-28T08:56:03.619Z,74.41
2022-11-28T08:57:05.574Z,74.39
2022-11-28T08:58:06.989Z,73.87
2022-11-28T08:59:09.681Z,73.66
2022-11-28T09:00:11.782Z,73.06
2022-11-28T09:01:22.220Z,73.00
2022-11-28T09:02:26.086Z,72.93
2022-11-28T09:03:28.967Z,73.17
2022-11-28T09:04:30.409Z,73.36
2022-11-28T09:05:32.431Z,73.15
2022-11-28T09:06:33.849Z,72.84
2022-11-28T09:07:35.449Z,74.27
2022-11-28T09:08:36.937Z,74.35
2022-11-28T09:09:38.452Z,74.30
2022-11-28T09:10:41.191Z,74.06
2022-11-28T09:11:42.796Z,74.02
2022-11-28T09:12:44.221Z,73.57
2022-11-28T09:13:46.618Z,73.76
2022-11-28T09:14:48.194Z,73.99
2022-11-28T09:15:52.701Z,73.06
2022-11-28T09:16:55.613Z,73.01
2022-11-28T09:17:57.048Z,72.89
2022-11-28T09:18:59.447Z,73.65
2022-11-28T09:20:00.850Z,73.29
2022-11-28T09:21:05.827Z,73.51
2022-11-28T09:22:07.994Z,72.50
2022-11-28T09:23:10.157Z,72.75
2022-11-28T09:24:14.039Z,72.76
2022-11-28T09:25:15.804Z,72.36
2022-11-28T09:26:20.707Z,72.49
2022-11-28T09:27:22.203Z,72.63
2022-11-28T09:28:24.378Z,72.64
2022-11-28T09:29:26.691Z,72.38
2022-11-28T09:30:28.646Z,72.22
2022-11-28T09:31:30.356Z,72.52
2022-11-28T09:32:32.622Z,72.60
2022-11-28T09:33:34.846Z,71.99
2022-11-28T09:34:36.319Z,72.14
2022-11-28T09:35:44.264Z,72.50
2022-11-28T09:36:49.219Z,72.52
2022-11-28T09:37:53.449Z,73.26
2022-11-28T09:38:54.851Z,73.23
2022-11-28T09:40:12.512Z,73.27
2022-11-28T09:41:39.836Z,72.47
2022-11-28T09:42:44.148Z,72.44
2022-11-28T09:43:52.014Z,72.10
2022-11-28T09:45:03.036Z,71.44
2022-11-28T09:46:07.902Z,71.52
2022-11-28T09:47:18.280Z,71.04
2022-11-28T09:48:33.064Z,71.28
2022-11-28T09:49:45.066Z,71.08
2022-11-28T09:50:47.192Z,71.57
2022-11-28T09:51:57.368Z,71.36
2022-11-28T09:53:13.678Z,71.67
2022-11-28T09:54:47.091Z,70.96
2022-11-28T09:56:00.072Z,71.08
2022-11-28T09:57:03.655Z,70.99
2022-11-28T09:58:16.814Z,70.96
2022-11-28T09:59:29.945Z,71.42
2022-11-28T10:00:52.626Z,71.96
2022-11-28T10:02:40.661Z,71.87
2022-11-28T10:04:10.827Z,71.72
2022-11-28T10:05:38.131Z,71.63
2022-11-28T10:06:48.627Z,71.69
2022-11-28T10:08:23.455Z,70.98
2022-11-28T10:09:30.721Z,71.09
2022-11-28T10:10:55.394Z,71.06
2022-11-28T10:12:18.725Z,71.33
2022-11-28T10:14:07.297Z,71.13
2022-11-28T10:15:15.833Z,71.50
2022-11-28T10:16:20.249Z,72.06
2022-11-28T10:17:38.200Z,71.93
2022-11-28T10:18:56.708Z,71.73
2022-11-28T10:20:10.603Z,71.70
2022-11-28T10:21:39.047Z,71.88
2022-11-28T10:22:53.495Z,71.27
2022-11-28T10:24:01.923Z,70.78
2022-11-28T10:25:18.876Z,71.24
2022-11-28T10:26:29.072Z,71.14
2022-11-28T10:27:35.259Z,71.30
2022-11-28T10:28:41.667Z,71.25
2022-11-28T10:29:51.922Z,71.02
2022-11-28T10:31:06.815Z,71.23
2022-11-28T10:32:14.547Z,71.04
2022-11-28T10:33:25.264Z,71.26
2022-11-28T10:34:31.828Z,71.49
2022-11-28T10:35:46.475Z,71.48
2022-11-28T10:36:57.028Z,70.96
2022-11-28T10:37:59.148Z,70.92
2022-11-28T10:39:12.926Z,70.76
2022-11-28T10:40:32.758Z,70.58
2022-11-28T10:41:40.515Z,70.45
2022-11-28T10:42:52.369Z,70.48
2022-11-28T10:44:26.706Z,70.62
2022-11-28T10:46:05.409Z,71.62
2022-11-28T10:47:34.715Z,71.13
2022-11-28T10:49:05.201Z,71.17
2022-11-28T10:50:18.830Z,71.03
2022-11-28T10:51:35.371Z,71.41
2022-11-28T10:52:50.516Z,71.43
2022-11-28T10:54:00.029Z,71.54
2022-11-28T10:55:37.305Z,70.91
2022-11-28T10:57:00.449Z,70.74
2022-11-28T10:58:19.667Z,70.22
2022-11-28T10:59:58.748Z,70.20
2022-11-28T11:01:01.171Z,70.61
2022-11-28T11:02:20.494Z,70.25
2022-11-28T11:03:28.580Z,70.35
2022-11-28T11:04:39.416Z,69.94
2022-11-28T11:05:41.416Z,69.75
2022-11-28T11:07:06.951Z,69.88
2022-11-28T11:08:21.128Z,69.54
2022-11-28T11:09:22.887Z,70.04
2022-11-28T11:10:37.495Z,70.42
2022-11-28T11:11:57.591Z,70.52
2022-11-28T11:13:00.090Z,71.15
2022-11-28T11:14:04.450Z,71.48
2022-11-28T11:15:22.024Z,71.33
2022-11-28T11:16:23.789Z,71.31
2022-11-28T11:17:35.905Z,70.88
2022-11-28T11:18:53.078Z,71.14
2022-11-28T11:19:54.544Z,70.59
2022-11-28T11:21:16.725Z,70.05
2022-11-28T11:22:22.351Z,70.18
2022-11-28T11:23:24.637Z,71.06
2022-11-28T11:24:26.273Z,71.48
2022-11-28T11:25:31.452Z,70.96
2022-11-28T11:26:38.155Z,70.83
2022-11-28T11:27:52.339Z,70.28
2022-11-28T11:28:54.999Z,70.18
2022-11-28T11:29:56.482Z,70.34
2022-11-28T11:31:03.559Z,71.18
2022-11-28T11:32:16.541Z,70.68
2022-11-28T11:33:18.591Z,70.40
2022-11-28T11:34:22.572Z,70.40
2022-11-28T11:35:35.952Z,70.23
2022-11-28T11:36:37.632Z,70.17
2022-11-28T11:37:39.105Z,70.14
2022-11-28T11:38:41.110Z,69.62
2022-11-28T11:39:53.335Z,69.56
2022-11-28T11:40:55.195Z,69.91
2022-11-28T11:41:59.615Z,69.30
2022-11-28T11:43:01.510Z,69.63
2022-11-28T11:44:34.523Z,68.90
2022-11-28T11:45:36.647Z,68.98
2022-11-28T11:46:51.636Z,69.41
2022-11-28T11:47:53.855Z,69.64
2022-11-28T11:48:55.312Z,69.80
2022-11-28T11:50:05.306Z,69.70
2022-11-28T11:51:20.720Z,70.27
2022-11-28T11:52:25.620Z,70.65
2022-11-28T11:53:27.421Z,71.20
2022-11-28T11:54:29.001Z,71.62
2022-11-28T11:55:36.352Z,71.21
2022-11-28T11:56:40.240Z,70.98
2022-11-28T11:57:53.003Z,70.65
2022-11-28T11:58:58.451Z,70.50
2022-11-28T12:00:07.000Z,69.56
2022-11-28T12:01:12.026Z,69.97
2022-11-28T12:02:37.236Z,69.43
2022-11-28T12:04:30.585Z,69.45
2022-11-28T12:06:06.476Z,69.08
2022-11-28T12:07:26.970Z,68.90
2022-11-28T12:08:47.958Z,69.29
2022-11-28T12:09:54.506Z,68.73
2022-11-28T12:11:02.131Z,68.38
2022-11-28T12:12:16.744Z,68.75
2022-11-28T12:13:22.017Z,70.14
2022-11-28T12:14:31.617Z,70.12
2022-11-28T12:15:46.327Z,70.42
2022-11-28T12:17:46.734Z,70.62
2022-11-28T12:19:14.450Z,69.67
2022-11-28T12:20:28.026Z,70.37
2022-11-28T12:21:49.643Z,70.02
2022-11-28T12:23:17.759Z,69.19
2022-11-28T12:25:02.132Z,69.42
2022-11-28T12:27:03.699Z,68.76
2022-11-28T12:28:24.077Z,68.93
2022-11-28T12:29:48.704Z,69.22
2022-11-28T12:31:29.497Z,68.82
2022-11-28T12:32:49.139Z,69.62
2022-11-28T12:34:01.471Z,69.63
2022-11-28T12:35:24.262Z,69.81
2022-11-28T12:36:25.719Z,69.83
2022-11-28T12:38:09.756Z,69.17
2022-11-28T12:39:38.027Z,69.50
2022-11-28T12:40:55.785Z,69.09
2022-11-28T12:42:09.562Z,68.80
2022-11-28T12:43:41.640Z,68.89
2022-11-28T12:45:11.976Z,68.72
2022-11-28T12:46:50.342Z,69.38
2022-11-28T12:48:07.282Z,68.95
2022-11-28T12:49:14.881Z,69.27
2022-11-28T12:50:25.585Z,68.69
2022-11-28T12:51:56.274Z,68.58
2022-11-28T12:53:24.218Z,69.36
2022-11-28T12:54:25.612Z,70.07
2022-11-28T12:55:51.579Z,69.63
2022-11-28T12:57:13.593Z,69.87
2022-11-28T12:58:30.683Z,69.58
2022-11-28T12:59:40.128Z,69.88
2022-11-28T13:01:04.313Z,69.28
2022-11-28T13:02:35.526Z,68.09
2022-11-28T13:03:42.592Z,68.59
2022-11-28T13:04:47.132Z,68.54
2022-11-28T13:06:13.945Z,68.92
2022-11-28T13:07:39.751Z,69.25
2022-11-28T13:08:50.333Z,69.09
2022-11-28T13:10:19.597Z,69.18
2022-11-28T13:11:25.983Z,68.78
2022-11-28T13:12:45.830Z,69.08
2022-11-28T13:13:56.285Z,69.50
2022-11-28T13:15:03.008Z,69.02
2022-11-28T13:16:26.608Z,68.90
2022-11-28T13:17:47.223Z,68.85
2022-11-28T13:18:54.429Z,68.84
2022-11-28T13:20:12.531Z,69.65
2022-11-28T13:21:19.790Z,68.97
2022-11-28T13:22:27.079Z,69.39
2022-11-28T13:24:07.160Z,70.04
2022-11-28T13:25:09.259Z,69.13
2022-11-28T13:26:18.533Z,69.28
2022-11-28T13:27:45.089Z,70.04
2022-11-28T13:28:54.286Z,69.58
2022-11-28T13:30:06.213Z,68.95
2022-11-28T13:31:26.152Z,68.01
2022-11-28T13:32:42.904Z,68.29
2022-11-28T13:33:53.031Z,68.15
2022-11-28T13:34:55.504Z,67.79
2022-11-28T13:35:59.560Z,69.02
2022-11-28T13:38:51.964Z,69.48
2022-11-28T13:40:14.717Z,69.40
2022-11-28T13:42:09.669Z,69.62
2022-11-28T13:43:08.650Z,69.26
2022-11-28T13:44:21.734Z,69.42
2022-11-28T13:45:35.916Z,69.37
2022-11-28T13:46:38.005Z,68.87
2022-11-28T13:47:39.832Z,69.30
2022-11-28T13:50:21.782Z,69.22
2022-11-28T13:51:33.838Z,69.56
2022-11-28T13:52:42.811Z,69.85
2022-11-28T13:53:46.220Z,69.35
2022-11-28T13:54:50.646Z,68.59
2022-11-28T13:56:05.355Z,68.59
2022-11-28T13:57:25.495Z,69.21
2022-11-28T13:58:32.751Z,68.54
2022-11-28T13:59:34.694Z,69.03
2022-11-28T14:00:36.145Z,68.67
2022-11-28T14:01:47.045Z,68.50
2022-11-28T14:02:53.115Z,68.74
2022-11-28T14:04:01.271Z,68.41
2022-11-28T14:05:04.513Z,68.26
2022-11-28T14:06:07.477Z,68.66
2022-11-28T14:07:19.778Z,69.10
2022-11-28T14:08:34.663Z,69.07
2022-11-28T14:10:14.502Z,68.72
2022-11-28T14:11:40.830Z,69.15
2022-11-28T14:12:58.537Z,69.05
2022-11-28T14:14:07.169Z,69.23
2022-11-28T14:15:26.740Z,69.11
2022-11-28T14:16:54.846Z,69.57
2022-11-28T14:18:54.885Z,69.30
2022-11-28T14:20:01.841Z,68.63
2022-11-28T14:21:28.553Z,69.48
2022-11-28T14:22:45.100Z,69.84
2022-11-28T14:24:14.304Z,70.03
2022-11-28T14:25:43.086Z,70.11
2022-11-28T14:26:44.826Z,69.88
2022-11-28T14:27:57.108Z,69.76
2022-11-28T14:28:59.828Z,70.03
2022-11-28T14:30:01.858Z,70.01
2022-11-28T14:31:29.304Z,70.28
2022-11-28T14:32:36.292Z,69.66
2022-11-28T14:33:42.799Z,70.32
2022-11-28T14:34:45.903Z,69.63
2022-11-28T14:35:50.642Z,69.23
2022-11-28T14:37:34.034Z,69.34
2022-11-28T14:38:35.449Z,69.70
2022-11-28T14:39:36.984Z,69.32
2022-11-28T14:40:56.926Z,69.61
2022-11-28T14:42:04.943Z,70.05
2022-11-28T14:43:48.373Z,70.00
2022-11-28T14:44:52.518Z,70.41
2022-11-28T14:46:32.995Z,70.20
2022-11-28T14:47:34.942Z,70.57
2022-11-28T14:48:37.217Z,70.35
2022-11-28T14:49:38.736Z,70.32